sensor_id;sensor_type;location;lat;lon;timestamp;P1;durP1;ratioP1;P2;durP2;ratioP2
11024;SDS011;22890;51.820;8.682;2023-01-05T00:01:00;23.37;;;5.57;;
11024;SDS011;22890;51.820;8.682;2023-01-05T00:03:29;19.43;;;4.90;;
11024;SDS011;22890;51.820;8.682;2023-01-05T00:06:14;14.77;;;4.97;;
11024;SDS011;22890;51.820;8.682;2023-01-05T00:08:45;30.63;;;5.97;;
11024;SDS011;22890;51.820;8.682;2023-01-05T00:11:16;20.40;;;5.43;;
11024;SDS011;22890;51.820;8.682;2023-01-05T00:14:18;18.40;;;4.97;;
11024;SDS011;22890;51.820;8.682;2023-01-05T00:17:05;24.23;;;6.03;;
11024;SDS011;22890;51.820;8.682;2023-01-05T00:19:54;17.30;;;5.10;;
11024;SDS011;22890;51.820;8.682;2023-01-05T00:22:50;23.27;;;5.40;;
11024;SDS011;22890;51.820;8.682;2023-01-05T00:25:19;18.50;;;4.77;;
11024;SDS011;22890;51.820;8.682;2023-01-05T00:27:48;24.37;;;6.17;;
11024;SDS011;22890;51.820;8.682;2023-01-05T00:30:20;20.67;;;4.47;;
11024;SDS011;22890;51.820;8.682;2023-01-05T00:32:49;18.63;;;5.30;;
11024;SDS011;22890;51.820;8.682;2023-01-05T00:35:16;17.47;;;5.10;;
11024;SDS011;22890;51.820;8.682;2023-01-05T00:37:43;17.77;;;4.67;;
11024;SDS011;22890;51.820;8.682;2023-01-05T00:40:13;21.70;;;4.57;;
11024;SDS011;22890;51.820;8.682;2023-01-05T00:42:40;17.33;;;5.00;;
11024;SDS011;22890;51.820;8.682;2023-01-05T00:45:09;20.63;;;4.37;;
11024;SDS011;22890;51.820;8.682;2023-01-05T00:47:37;18.83;;;4.13;;
11024;SDS011;22890;51.820;8.682;2023-01-05T00:50:05;19.23;;;5.07;;
11024;SDS011;22890;51.820;8.682;2023-01-05T00:52:33;18.80;;;4.43;;
11024;SDS011;22890;51.820;8.682;2023-01-05T00:55:00;16.60;;;4.37;;
11024;SDS011;22890;51.820;8.682;2023-01-05T00:57:27;21.30;;;4.77;;
11024;SDS011;22890;51.820;8.682;2023-01-05T00:59:54;19.10;;;4.40;;
11024;SDS011;22890;51.820;8.682;2023-01-05T01:02:21;20.87;;;4.57;;
11024;SDS011;22890;51.820;8.682;2023-01-05T01:04:49;15.37;;;4.40;;
11024;SDS011;22890;51.820;8.682;2023-01-05T01:07:16;16.10;;;4.63;;
11024;SDS011;22890;51.820;8.682;2023-01-05T01:09:43;22.47;;;4.47;;
11024;SDS011;22890;51.820;8.682;2023-01-05T01:12:10;17.23;;;5.43;;
11024;SDS011;22890;51.820;8.682;2023-01-05T01:14:37;20.87;;;5.17;;
11024;SDS011;22890;51.820;8.682;2023-01-05T01:17:04;17.97;;;4.93;;
11024;SDS011;22890;51.820;8.682;2023-01-05T01:19:31;19.60;;;4.10;;
11024;SDS011;22890;51.820;8.682;2023-01-05T01:21:58;22.83;;;4.77;;
11024;SDS011;22890;51.820;8.682;2023-01-05T01:24:26;18.33;;;3.23;;
11024;SDS011;22890;51.820;8.682;2023-01-05T01:26:54;17.87;;;3.97;;
11024;SDS011;22890;51.820;8.682;2023-01-05T01:29:21;19.67;;;4.67;;
11024;SDS011;22890;51.820;8.682;2023-01-05T01:31:50;18.13;;;4.00;;
11024;SDS011;22890;51.820;8.682;2023-01-05T01:34:18;18.83;;;3.83;;
11024;SDS011;22890;51.820;8.682;2023-01-05T01:36:45;10.70;;;3.30;;
11024;SDS011;22890;51.820;8.682;2023-01-05T01:39:14;14.10;;;3.80;;
11024;SDS011;22890;51.820;8.682;2023-01-05T01:41:45;19.03;;;4.30;;
11024;SDS011;22890;51.820;8.682;2023-01-05T01:47:38;15.53;;;3.77;;
11024;SDS011;22890;51.820;8.682;2023-01-05T01:50:28;11.93;;;4.07;;
11024;SDS011;22890;51.820;8.682;2023-01-05T01:53:02;16.50;;;3.70;;
11024;SDS011;22890;51.820;8.682;2023-01-05T01:55:31;10.73;;;3.23;;
11024;SDS011;22890;51.820;8.682;2023-01-05T01:58:00;13.00;;;2.93;;
11024;SDS011;22890;51.820;8.682;2023-01-05T02:00:31;15.90;;;3.13;;
11024;SDS011;22890;51.820;8.682;2023-01-05T02:02:58;14.00;;;3.77;;
11024;SDS011;22890;51.820;8.682;2023-01-05T02:05:29;23.83;;;4.23;;
11024;SDS011;22890;51.820;8.682;2023-01-05T02:07:58;12.03;;;2.97;;
11024;SDS011;22890;51.820;8.682;2023-01-05T02:10:31;18.80;;;3.67;;
11024;SDS011;22890;51.820;8.682;2023-01-05T02:16:34;19.07;;;4.73;;
11024;SDS011;22890;51.820;8.682;2023-01-05T02:19:28;11.97;;;3.33;;
11024;SDS011;22890;51.820;8.682;2023-01-05T02:22:33;20.60;;;4.23;;
11024;SDS011;22890;51.820;8.682;2023-01-05T02:25:30;10.73;;;3.50;;
11024;SDS011;22890;51.820;8.682;2023-01-05T02:28:34;15.60;;;3.50;;
11024;SDS011;22890;51.820;8.682;2023-01-05T02:33:58;10.63;;;3.57;;
11024;SDS011;22890;51.820;8.682;2023-01-05T02:36:46;12.83;;;4.23;;
11024;SDS011;22890;51.820;8.682;2023-01-05T02:39:28;16.13;;;3.70;;
11024;SDS011;22890;51.820;8.682;2023-01-05T02:42:13;12.93;;;3.60;;
11024;SDS011;22890;51.820;8.682;2023-01-05T02:44:44;15.00;;;3.00;;
11024;SDS011;22890;51.820;8.682;2023-01-05T02:49:51;16.30;;;5.10;;
11024;SDS011;22890;51.820;8.682;2023-01-05T02:52:34;21.57;;;3.70;;
11024;SDS011;22890;51.820;8.682;2023-01-05T02:55:07;11.10;;;3.00;;
11024;SDS011;22890;51.820;8.682;2023-01-05T02:57:51;17.63;;;3.57;;
11024;SDS011;22890;51.820;8.682;2023-01-05T03:00:28;19.37;;;3.80;;
11024;SDS011;22890;51.820;8.682;2023-01-05T03:03:06;23.07;;;3.67;;
11024;SDS011;22890;51.820;8.682;2023-01-05T03:05:42;19.63;;;3.97;;
11024;SDS011;22890;51.820;8.682;2023-01-05T03:08:20;18.77;;;3.83;;
11024;SDS011;22890;51.820;8.682;2023-01-05T03:11:01;18.13;;;4.30;;
11024;SDS011;22890;51.820;8.682;2023-01-05T03:13:50;11.70;;;2.97;;
11024;SDS011;22890;51.820;8.682;2023-01-05T03:16:39;9.17;;;3.27;;
11024;SDS011;22890;51.820;8.682;2023-01-05T03:19:09;14.27;;;4.10;;
11024;SDS011;22890;51.820;8.682;2023-01-05T03:21:58;16.87;;;3.83;;
11024;SDS011;22890;51.820;8.682;2023-01-05T03:24:51;13.83;;;2.90;;
11024;SDS011;22890;51.820;8.682;2023-01-05T03:27:38;40.67;;;5.10;;
11024;SDS011;22890;51.820;8.682;2023-01-05T03:30:29;14.23;;;3.77;;
11024;SDS011;22890;51.820;8.682;2023-01-05T03:33:24;15.70;;;4.20;;
11024;SDS011;22890;51.820;8.682;2023-01-05T03:36:20;16.13;;;3.33;;
11024;SDS011;22890;51.820;8.682;2023-01-05T03:38:50;15.87;;;4.23;;
11024;SDS011;22890;51.820;8.682;2023-01-05T03:41:19;11.63;;;3.23;;
11024;SDS011;22890;51.820;8.682;2023-01-05T03:43:48;17.23;;;4.00;;
11024;SDS011;22890;51.820;8.682;2023-01-05T03:46:18;15.57;;;4.07;;
11024;SDS011;22890;51.820;8.682;2023-01-05T03:48:47;13.17;;;4.60;;
11024;SDS011;22890;51.820;8.682;2023-01-05T03:51:17;21.87;;;4.50;;
11024;SDS011;22890;51.820;8.682;2023-01-05T03:53:45;19.40;;;4.10;;
11024;SDS011;22890;51.820;8.682;2023-01-05T03:56:12;20.10;;;4.13;;
11024;SDS011;22890;51.820;8.682;2023-01-05T03:58:39;13.40;;;3.23;;
11024;SDS011;22890;51.820;8.682;2023-01-05T04:01:06;18.37;;;4.10;;
11024;SDS011;22890;51.820;8.682;2023-01-05T04:03:35;16.73;;;4.17;;
11024;SDS011;22890;51.820;8.682;2023-01-05T04:06:04;20.87;;;5.70;;
11024;SDS011;22890;51.820;8.682;2023-01-05T04:08:33;20.17;;;4.90;;
11024;SDS011;22890;51.820;8.682;2023-01-05T04:11:10;24.40;;;4.70;;
11024;SDS011;22890;51.820;8.682;2023-01-05T04:13:50;15.03;;;3.80;;
11024;SDS011;22890;51.820;8.682;2023-01-05T04:16:17;19.50;;;5.07;;
11024;SDS011;22890;51.820;8.682;2023-01-05T04:18:47;23.80;;;4.07;;
11024;SDS011;22890;51.820;8.682;2023-01-05T04:21:16;20.53;;;4.17;;
11024;SDS011;22890;51.820;8.682;2023-01-05T04:23:44;19.13;;;4.47;;
11024;SDS011;22890;51.820;8.682;2023-01-05T04:26:12;19.80;;;4.17;;
11024;SDS011;22890;51.820;8.682;2023-01-05T04:28:39;18.33;;;3.20;;
11024;SDS011;22890;51.820;8.682;2023-01-05T04:31:08;20.93;;;4.73;;
11024;SDS011;22890;51.820;8.682;2023-01-05T04:33:36;11.77;;;3.90;;
11024;SDS011;22890;51.820;8.682;2023-01-05T04:36:06;13.93;;;4.13;;
11024;SDS011;22890;51.820;8.682;2023-01-05T04:38:34;19.57;;;4.40;;
11024;SDS011;22890;51.820;8.682;2023-01-05T04:41:01;23.43;;;4.40;;
11024;SDS011;22890;51.820;8.682;2023-01-05T04:43:28;23.07;;;4.97;;
11024;SDS011;22890;51.820;8.682;2023-01-05T04:45:58;23.13;;;3.90;;
11024;SDS011;22890;51.820;8.682;2023-01-05T04:48:25;20.90;;;5.13;;
11024;SDS011;22890;51.820;8.682;2023-01-05T04:50:53;22.67;;;4.83;;
11024;SDS011;22890;51.820;8.682;2023-01-05T04:53:26;16.30;;;4.60;;
11024;SDS011;22890;51.820;8.682;2023-01-05T04:55:54;19.30;;;3.90;;
11024;SDS011;22890;51.820;8.682;2023-01-05T04:58:22;18.43;;;3.83;;
11024;SDS011;22890;51.820;8.682;2023-01-05T05:00:51;22.90;;;4.63;;
11024;SDS011;22890;51.820;8.682;2023-01-05T05:03:19;20.60;;;4.07;;
11024;SDS011;22890;51.820;8.682;2023-01-05T05:05:47;21.83;;;4.23;;
11024;SDS011;22890;51.820;8.682;2023-01-05T05:08:14;17.90;;;4.23;;
11024;SDS011;22890;51.820;8.682;2023-01-05T05:10:41;14.20;;;4.13;;
11024;SDS011;22890;51.820;8.682;2023-01-05T05:13:08;13.80;;;2.90;;
11024;SDS011;22890;51.820;8.682;2023-01-05T05:15:36;15.63;;;3.57;;
11024;SDS011;22890;51.820;8.682;2023-01-05T05:18:04;18.60;;;4.40;;
11024;SDS011;22890;51.820;8.682;2023-01-05T05:20:37;16.97;;;3.27;;
11024;SDS011;22890;51.820;8.682;2023-01-05T05:23:08;23.10;;;4.57;;
11024;SDS011;22890;51.820;8.682;2023-01-05T05:25:35;16.60;;;4.33;;
11024;SDS011;22890;51.820;8.682;2023-01-05T05:28:02;12.20;;;3.83;;
11024;SDS011;22890;51.820;8.682;2023-01-05T05:30:29;17.57;;;4.07;;
11024;SDS011;22890;51.820;8.682;2023-01-05T05:32:57;16.83;;;3.77;;
11024;SDS011;22890;51.820;8.682;2023-01-05T05:35:24;15.90;;;3.33;;
11024;SDS011;22890;51.820;8.682;2023-01-05T05:37:51;16.43;;;3.93;;
11024;SDS011;22890;51.820;8.682;2023-01-05T05:40:22;13.43;;;2.97;;
11024;SDS011;22890;51.820;8.682;2023-01-05T05:42:49;19.97;;;4.60;;
11024;SDS011;22890;51.820;8.682;2023-01-05T05:45:16;13.50;;;3.60;;
11024;SDS011;22890;51.820;8.682;2023-01-05T05:47:43;15.93;;;3.60;;
11024;SDS011;22890;51.820;8.682;2023-01-05T05:50:10;19.00;;;4.20;;
11024;SDS011;22890;51.820;8.682;2023-01-05T05:52:37;13.00;;;3.73;;
11024;SDS011;22890;51.820;8.682;2023-01-05T05:55:05;12.67;;;3.70;;
11024;SDS011;22890;51.820;8.682;2023-01-05T05:57:32;11.77;;;3.83;;
11024;SDS011;22890;51.820;8.682;2023-01-05T06:00:04;15.93;;;4.87;;
11024;SDS011;22890;51.820;8.682;2023-01-05T06:02:37;26.20;;;5.90;;
11024;SDS011;22890;51.820;8.682;2023-01-05T06:05:05;14.17;;;4.20;;
11024;SDS011;22890;51.820;8.682;2023-01-05T06:07:32;13.70;;;3.70;;
11024;SDS011;22890;51.820;8.682;2023-01-05T06:09:59;14.93;;;3.87;;
11024;SDS011;22890;51.820;8.682;2023-01-05T06:12:26;15.63;;;4.37;;
11024;SDS011;22890;51.820;8.682;2023-01-05T06:14:53;17.03;;;3.73;;
11024;SDS011;22890;51.820;8.682;2023-01-05T06:17:21;14.67;;;3.47;;
11024;SDS011;22890;51.820;8.682;2023-01-05T06:19:48;10.70;;;3.33;;
11024;SDS011;22890;51.820;8.682;2023-01-05T06:22:15;12.53;;;3.63;;
11024;SDS011;22890;51.820;8.682;2023-01-05T06:24:42;20.40;;;4.53;;
11024;SDS011;22890;51.820;8.682;2023-01-05T06:27:09;12.97;;;3.90;;
11024;SDS011;22890;51.820;8.682;2023-01-05T06:29:36;14.80;;;4.23;;
11024;SDS011;22890;51.820;8.682;2023-01-05T06:32:03;15.40;;;4.53;;
11024;SDS011;22890;51.820;8.682;2023-01-05T06:34:30;12.60;;;3.70;;
11024;SDS011;22890;51.820;8.682;2023-01-05T06:36:57;12.70;;;3.57;;
11024;SDS011;22890;51.820;8.682;2023-01-05T06:39:27;11.40;;;3.37;;
11024;SDS011;22890;51.820;8.682;2023-01-05T06:41:54;17.03;;;4.60;;
11024;SDS011;22890;51.820;8.682;2023-01-05T06:44:22;15.40;;;4.30;;
11024;SDS011;22890;51.820;8.682;2023-01-05T06:46:49;15.77;;;5.00;;
11024;SDS011;22890;51.820;8.682;2023-01-05T06:49:16;15.37;;;4.17;;
11024;SDS011;22890;51.820;8.682;2023-01-05T06:51:43;16.10;;;4.30;;
11024;SDS011;22890;51.820;8.682;2023-01-05T06:54:10;19.30;;;4.67;;
11024;SDS011;22890;51.820;8.682;2023-01-05T06:56:37;16.83;;;4.83;;
11024;SDS011;22890;51.820;8.682;2023-01-05T06:59:04;19.03;;;4.20;;
11024;SDS011;22890;51.820;8.682;2023-01-05T07:01:31;20.23;;;5.17;;
11024;SDS011;22890;51.820;8.682;2023-01-05T07:03:58;19.30;;;5.40;;
11024;SDS011;22890;51.820;8.682;2023-01-05T07:06:25;28.37;;;5.70;;
11024;SDS011;22890;51.820;8.682;2023-01-05T07:08:52;19.73;;;5.07;;
11024;SDS011;22890;51.820;8.682;2023-01-05T07:11:19;19.80;;;4.00;;
11024;SDS011;22890;51.820;8.682;2023-01-05T07:13:47;11.93;;;4.27;;
11024;SDS011;22890;51.820;8.682;2023-01-05T07:16:15;19.23;;;5.27;;
11024;SDS011;22890;51.820;8.682;2023-01-05T07:18:42;16.53;;;4.27;;
11024;SDS011;22890;51.820;8.682;2023-01-05T07:21:09;15.00;;;4.43;;
11024;SDS011;22890;51.820;8.682;2023-01-05T07:23:37;26.37;;;6.17;;
11024;SDS011;22890;51.820;8.682;2023-01-05T07:26:04;15.13;;;4.50;;
11024;SDS011;22890;51.820;8.682;2023-01-05T07:28:33;17.53;;;4.40;;
11024;SDS011;22890;51.820;8.682;2023-01-05T07:31:00;20.07;;;5.17;;
11024;SDS011;22890;51.820;8.682;2023-01-05T07:33:27;24.00;;;4.73;;
11024;SDS011;22890;51.820;8.682;2023-01-05T07:36:02;24.83;;;5.13;;
11024;SDS011;22890;51.820;8.682;2023-01-05T07:38:30;22.73;;;5.33;;
11024;SDS011;22890;51.820;8.682;2023-01-05T07:40:57;20.33;;;4.77;;
11024;SDS011;22890;51.820;8.682;2023-01-05T07:43:25;15.67;;;4.43;;
11024;SDS011;22890;51.820;8.682;2023-01-05T07:45:58;20.37;;;5.00;;
11024;SDS011;22890;51.820;8.682;2023-01-05T07:48:25;16.57;;;4.67;;
11024;SDS011;22890;51.820;8.682;2023-01-05T07:50:58;25.73;;;5.77;;
11024;SDS011;22890;51.820;8.682;2023-01-05T07:53:26;24.90;;;5.57;;
11024;SDS011;22890;51.820;8.682;2023-01-05T07:55:55;14.87;;;5.23;;
11024;SDS011;22890;51.820;8.682;2023-01-05T07:58:24;18.80;;;5.70;;
11024;SDS011;22890;51.820;8.682;2023-01-05T08:00:51;20.80;;;5.33;;
11024;SDS011;22890;51.820;8.682;2023-01-05T08:03:18;16.20;;;4.27;;
11024;SDS011;22890;51.820;8.682;2023-01-05T08:05:45;14.27;;;4.83;;
11024;SDS011;22890;51.820;8.682;2023-01-05T08:08:13;22.83;;;5.03;;
11024;SDS011;22890;51.820;8.682;2023-01-05T08:10:49;15.83;;;4.80;;
11024;SDS011;22890;51.820;8.682;2023-01-05T08:13:15;16.47;;;4.33;;
11024;SDS011;22890;51.820;8.682;2023-01-05T08:16:02;14.53;;;3.73;;
11024;SDS011;22890;51.820;8.682;2023-01-05T08:18:29;12.93;;;5.00;;
11024;SDS011;22890;51.820;8.682;2023-01-05T08:20:57;21.77;;;5.03;;
11024;SDS011;22890;51.820;8.682;2023-01-05T08:23:26;18.37;;;4.50;;
11024;SDS011;22890;51.820;8.682;2023-01-05T08:25:53;16.73;;;4.40;;
11024;SDS011;22890;51.820;8.682;2023-01-05T08:28:21;17.30;;;4.33;;
11024;SDS011;22890;51.820;8.682;2023-01-05T08:30:49;16.23;;;4.43;;
11024;SDS011;22890;51.820;8.682;2023-01-05T08:33:16;15.30;;;4.30;;
11024;SDS011;22890;51.820;8.682;2023-01-05T08:35:43;19.67;;;5.00;;
11024;SDS011;22890;51.820;8.682;2023-01-05T08:38:10;22.43;;;4.90;;
11024;SDS011;22890;51.820;8.682;2023-01-05T08:40:38;15.67;;;4.93;;
11024;SDS011;22890;51.820;8.682;2023-01-05T08:43:05;15.30;;;4.77;;
11024;SDS011;22890;51.820;8.682;2023-01-05T08:45:32;20.93;;;4.20;;
11024;SDS011;22890;51.820;8.682;2023-01-05T08:48:00;19.03;;;5.20;;
11024;SDS011;22890;51.820;8.682;2023-01-05T08:50:27;17.03;;;5.07;;
11024;SDS011;22890;51.820;8.682;2023-01-05T08:52:54;17.13;;;5.67;;
11024;SDS011;22890;51.820;8.682;2023-01-05T08:55:21;20.03;;;4.83;;
11024;SDS011;22890;51.820;8.682;2023-01-05T08:57:48;16.57;;;4.80;;
11024;SDS011;22890;51.820;8.682;2023-01-05T09:00:15;19.27;;;5.20;;
11024;SDS011;22890;51.820;8.682;2023-01-05T09:02:43;15.17;;;3.97;;
11024;SDS011;22890;51.820;8.682;2023-01-05T09:05:10;12.63;;;4.60;;
11024;SDS011;22890;51.820;8.682;2023-01-05T09:07:37;16.53;;;4.53;;
11024;SDS011;22890;51.820;8.682;2023-01-05T09:10:05;16.90;;;5.23;;
11024;SDS011;22890;51.820;8.682;2023-01-05T09:12:36;15.97;;;4.73;;
11024;SDS011;22890;51.820;8.682;2023-01-05T09:15:04;15.97;;;4.83;;
11024;SDS011;22890;51.820;8.682;2023-01-05T09:17:32;12.10;;;4.33;;
11024;SDS011;22890;51.820;8.682;2023-01-05T09:20:01;17.73;;;4.70;;
11024;SDS011;22890;51.820;8.682;2023-01-05T09:22:32;23.33;;;6.57;;
11024;SDS011;22890;51.820;8.682;2023-01-05T09:25:01;15.53;;;4.87;;
11024;SDS011;22890;51.820;8.682;2023-01-05T09:27:28;21.70;;;4.90;;
11024;SDS011;22890;51.820;8.682;2023-01-05T09:29:55;18.97;;;4.50;;
11024;SDS011;22890;51.820;8.682;2023-01-05T09:32:22;11.97;;;4.53;;
11024;SDS011;22890;51.820;8.682;2023-01-05T09:34:49;19.03;;;4.63;;
11024;SDS011;22890;51.820;8.682;2023-01-05T09:37:16;24.37;;;7.37;;
11024;SDS011;22890;51.820;8.682;2023-01-05T09:39:43;15.90;;;4.73;;
11024;SDS011;22890;51.820;8.682;2023-01-05T09:42:11;14.67;;;4.60;;
11024;SDS011;22890;51.820;8.682;2023-01-05T09:44:44;23.23;;;5.87;;
11024;SDS011;22890;51.820;8.682;2023-01-05T09:50:12;16.33;;;3.80;;
11024;SDS011;22890;51.820;8.682;2023-01-05T09:52:44;18.40;;;4.73;;
11024;SDS011;22890;51.820;8.682;2023-01-05T09:55:15;17.93;;;5.30;;
11024;SDS011;22890;51.820;8.682;2023-01-05T09:57:46;16.77;;;4.87;;
11024;SDS011;22890;51.820;8.682;2023-01-05T10:00:39;19.23;;;6.17;;
11024;SDS011;22890;51.820;8.682;2023-01-05T10:03:09;16.17;;;5.30;;
11024;SDS011;22890;51.820;8.682;2023-01-05T10:06:01;22.53;;;5.17;;
11024;SDS011;22890;51.820;8.682;2023-01-05T10:08:37;17.07;;;5.40;;
11024;SDS011;22890;51.820;8.682;2023-01-05T10:11:09;14.43;;;4.77;;
11024;SDS011;22890;51.820;8.682;2023-01-05T10:14:08;17.47;;;5.63;;
11024;SDS011;22890;51.820;8.682;2023-01-05T10:16:41;17.37;;;4.80;;
11024;SDS011;22890;51.820;8.682;2023-01-05T10:19:13;16.93;;;4.77;;
11024;SDS011;22890;51.820;8.682;2023-01-05T10:21:54;19.63;;;5.20;;
11024;SDS011;22890;51.820;8.682;2023-01-05T10:25:13;18.20;;;4.80;;
11024;SDS011;22890;51.820;8.682;2023-01-05T10:30:21;21.33;;;4.43;;
11024;SDS011;22890;51.820;8.682;2023-01-05T10:35:57;15.10;;;4.73;;
11024;SDS011;22890;51.820;8.682;2023-01-05T10:39:14;20.17;;;5.00;;
11024;SDS011;22890;51.820;8.682;2023-01-05T10:42:17;16.33;;;4.23;;
11024;SDS011;22890;51.820;8.682;2023-01-05T10:44:57;26.17;;;12.10;;
11024;SDS011;22890;51.820;8.682;2023-01-05T10:47:28;17.77;;;5.50;;
11024;SDS011;22890;51.820;8.682;2023-01-05T10:50:00;17.07;;;4.43;;
11024;SDS011;22890;51.820;8.682;2023-01-05T10:52:29;13.50;;;3.63;;
11024;SDS011;22890;51.820;8.682;2023-01-05T10:54:56;12.90;;;4.97;;
11024;SDS011;22890;51.820;8.682;2023-01-05T11:00:10;13.33;;;4.03;;
11024;SDS011;22890;51.820;8.682;2023-01-05T11:02:40;16.47;;;5.20;;
11024;SDS011;22890;51.820;8.682;2023-01-05T11:05:26;14.37;;;4.93;;
11024;SDS011;22890;51.820;8.682;2023-01-05T11:08:03;17.00;;;4.33;;
11024;SDS011;22890;51.820;8.682;2023-01-05T11:10:33;22.43;;;5.43;;
11024;SDS011;22890;51.820;8.682;2023-01-05T11:13:46;11.87;;;4.20;;
11024;SDS011;22890;51.820;8.682;2023-01-05T11:15:54;6.90;;;3.90;;
11024;SDS011;22890;51.820;8.682;2023-01-05T11:18:26;18.60;;;4.70;;
11024;SDS011;22890;51.820;8.682;2023-01-05T11:23:35;14.73;;;4.83;;
11024;SDS011;22890;51.820;8.682;2023-01-05T11:26:19;14.43;;;4.10;;
11024;SDS011;22890;51.820;8.682;2023-01-05T11:28:56;15.23;;;4.27;;
11024;SDS011;22890;51.820;8.682;2023-01-05T11:31:30;20.43;;;5.37;;
11024;SDS011;22890;51.820;8.682;2023-01-05T11:34:08;15.03;;;5.20;;
11024;SDS011;22890;51.820;8.682;2023-01-05T11:36:55;16.63;;;4.50;;
11024;SDS011;22890;51.820;8.682;2023-01-05T11:42:08;24.17;;;6.27;;
11024;SDS011;22890;51.820;8.682;2023-01-05T11:44:47;12.70;;;5.00;;
11024;SDS011;22890;51.820;8.682;2023-01-05T11:47:17;26.07;;;5.63;;
11024;SDS011;22890;51.820;8.682;2023-01-05T11:50:04;18.90;;;5.60;;
11024;SDS011;22890;51.820;8.682;2023-01-05T11:55:56;23.83;;;5.60;;
11024;SDS011;22890;51.820;8.682;2023-01-05T12:06:40;19.17;;;5.13;;
11024;SDS011;22890;51.820;8.682;2023-01-05T12:09:29;21.37;;;5.90;;
11024;SDS011;22890;51.820;8.682;2023-01-05T12:15:33;25.07;;;6.50;;
11024;SDS011;22890;51.820;8.682;2023-01-05T12:18:11;21.83;;;5.80;;
11024;SDS011;22890;51.820;8.682;2023-01-05T12:26:03;19.63;;;4.20;;
11024;SDS011;22890;51.820;8.682;2023-01-05T12:28:45;14.67;;;4.80;;
11024;SDS011;22890;51.820;8.682;2023-01-05T12:37:59;17.77;;;5.33;;
11024;SDS011;22890;51.820;8.682;2023-01-05T12:48:51;16.60;;;5.17;;
11024;SDS011;22890;51.820;8.682;2023-01-05T12:51:28;23.27;;;6.83;;
11024;SDS011;22890;51.820;8.682;2023-01-05T12:54:45;15.77;;;4.80;;
11024;SDS011;22890;51.820;8.682;2023-01-05T12:57:32;21.17;;;4.90;;
11024;SDS011;22890;51.820;8.682;2023-01-05T13:00:19;21.70;;;5.27;;
11024;SDS011;22890;51.820;8.682;2023-01-05T13:05:29;14.23;;;4.30;;
11024;SDS011;22890;51.820;8.682;2023-01-05T13:10:52;16.47;;;4.27;;
11024;SDS011;22890;51.820;8.682;2023-01-05T13:13:29;11.53;;;4.43;;
11024;SDS011;22890;51.820;8.682;2023-01-05T13:18:29;20.53;;;5.13;;
11024;SDS011;22890;51.820;8.682;2023-01-05T13:21:01;12.07;;;4.33;;
11024;SDS011;22890;51.820;8.682;2023-01-05T13:23:43;17.60;;;5.10;;
11024;SDS011;22890;51.820;8.682;2023-01-05T13:26:17;18.40;;;5.87;;
11024;SDS011;22890;51.820;8.682;2023-01-05T13:28:45;19.87;;;5.17;;
11024;SDS011;22890;51.820;8.682;2023-01-05T13:34:15;18.03;;;5.00;;
11024;SDS011;22890;51.820;8.682;2023-01-05T13:48:09;12.37;;;4.20;;
11024;SDS011;22890;51.820;8.682;2023-01-05T13:51:23;14.67;;;4.07;;
11024;SDS011;22890;51.820;8.682;2023-01-05T13:54:09;16.43;;;4.97;;
11024;SDS011;22890;51.820;8.682;2023-01-05T13:56:43;14.40;;;4.40;;
11024;SDS011;22890;51.820;8.682;2023-01-05T14:02:28;14.03;;;4.60;;
11024;SDS011;22890;51.820;8.682;2023-01-05T14:05:14;17.43;;;4.17;;
11024;SDS011;22890;51.820;8.682;2023-01-05T14:07:50;22.27;;;5.70;;
11024;SDS011;22890;51.820;8.682;2023-01-05T14:10:26;13.60;;;3.50;;
11024;SDS011;22890;51.820;8.682;2023-01-05T14:12:55;14.40;;;5.40;;
11024;SDS011;22890;51.820;8.682;2023-01-05T14:18:09;16.77;;;4.63;;
11024;SDS011;22890;51.820;8.682;2023-01-05T14:20:44;13.50;;;4.13;;
11024;SDS011;22890;51.820;8.682;2023-01-05T14:25:57;16.03;;;5.03;;
11024;SDS011;22890;51.820;8.682;2023-01-05T14:33:57;19.27;;;5.17;;
11024;SDS011;22890;51.820;8.682;2023-01-05T14:36:42;15.03;;;5.00;;
11024;SDS011;22890;51.820;8.682;2023-01-05T14:39:24;23.13;;;4.87;;
11024;SDS011;22890;51.820;8.682;2023-01-05T14:44:58;20.77;;;4.07;;
11024;SDS011;22890;51.820;8.682;2023-01-05T14:53:12;12.87;;;4.30;;
11024;SDS011;22890;51.820;8.682;2023-01-05T15:09:37;17.10;;;5.43;;
11024;SDS011;22890;51.820;8.682;2023-01-05T15:15:27;18.07;;;4.30;;
11024;SDS011;22890;51.820;8.682;2023-01-05T15:21:12;17.43;;;5.73;;
11024;SDS011;22890;51.820;8.682;2023-01-05T15:29:57;20.83;;;6.37;;
11024;SDS011;22890;51.820;8.682;2023-01-05T15:32:42;11.30;;;4.57;;
11024;SDS011;22890;51.820;8.682;2023-01-05T15:35:17;18.93;;;7.30;;
11024;SDS011;22890;51.820;8.682;2023-01-05T15:37:54;25.27;;;14.13;;
11024;SDS011;22890;51.820;8.682;2023-01-05T15:42:52;28.17;;;5.50;;
11024;SDS011;22890;51.820;8.682;2023-01-05T15:45:26;17.53;;;5.40;;
11024;SDS011;22890;51.820;8.682;2023-01-05T15:47:55;19.00;;;5.17;;
11024;SDS011;22890;51.820;8.682;2023-01-05T15:50:35;17.43;;;5.67;;
11024;SDS011;22890;51.820;8.682;2023-01-05T15:53:21;15.90;;;6.07;;
11024;SDS011;22890;51.820;8.682;2023-01-05T15:55:50;14.17;;;5.37;;
11024;SDS011;22890;51.820;8.682;2023-01-05T15:58:19;11.33;;;5.03;;
11024;SDS011;22890;51.820;8.682;2023-01-05T16:01:06;14.17;;;5.47;;
11024;SDS011;22890;51.820;8.682;2023-01-05T16:03:37;18.90;;;6.07;;
11024;SDS011;22890;51.820;8.682;2023-01-05T16:06:07;17.97;;;7.07;;
11024;SDS011;22890;51.820;8.682;2023-01-05T16:08:43;13.13;;;5.60;;
11024;SDS011;22890;51.820;8.682;2023-01-05T16:11:13;16.50;;;6.43;;
11024;SDS011;22890;51.820;8.682;2023-01-05T16:13:51;19.83;;;5.90;;
11024;SDS011;22890;51.820;8.682;2023-01-05T16:16:35;19.07;;;6.57;;
11024;SDS011;22890;51.820;8.682;2023-01-05T16:22:01;20.70;;;6.73;;
11024;SDS011;22890;51.820;8.682;2023-01-05T16:24:31;19.30;;;6.13;;
11024;SDS011;22890;51.820;8.682;2023-01-05T16:27:02;20.43;;;6.33;;
11024;SDS011;22890;51.820;8.682;2023-01-05T16:29:35;18.17;;;6.30;;
11024;SDS011;22890;51.820;8.682;2023-01-05T16:32:30;18.57;;;5.60;;
11024;SDS011;22890;51.820;8.682;2023-01-05T16:38:02;16.37;;;5.93;;
11024;SDS011;22890;51.820;8.682;2023-01-05T16:40:36;30.20;;;11.93;;
11024;SDS011;22890;51.820;8.682;2023-01-05T16:43:40;20.70;;;7.80;;
11024;SDS011;22890;51.820;8.682;2023-01-05T16:46:22;29.03;;;13.03;;
11024;SDS011;22890;51.820;8.682;2023-01-05T16:48:58;17.67;;;6.43;;
11024;SDS011;22890;51.820;8.682;2023-01-05T16:51:49;19.63;;;6.43;;
11024;SDS011;22890;51.820;8.682;2023-01-05T16:56:54;28.30;;;6.83;;
11024;SDS011;22890;51.820;8.682;2023-01-05T17:04:53;21.43;;;8.33;;
11024;SDS011;22890;51.820;8.682;2023-01-05T17:07:20;21.43;;;6.77;;
11024;SDS011;22890;51.820;8.682;2023-01-05T17:09:47;20.20;;;6.93;;
11024;SDS011;22890;51.820;8.682;2023-01-05T17:12:14;14.77;;;6.80;;
11024;SDS011;22890;51.820;8.682;2023-01-05T17:14:41;28.10;;;8.07;;
11024;SDS011;22890;51.820;8.682;2023-01-05T17:17:10;25.17;;;8.53;;
11024;SDS011;22890;51.820;8.682;2023-01-05T17:19:38;24.73;;;11.83;;
11024;SDS011;22890;51.820;8.682;2023-01-05T17:22:05;33.43;;;14.97;;
11024;SDS011;22890;51.820;8.682;2023-01-05T17:24:37;27.50;;;9.57;;
11024;SDS011;22890;51.820;8.682;2023-01-05T17:27:04;23.87;;;8.43;;
11024;SDS011;22890;51.820;8.682;2023-01-05T17:29:31;18.33;;;7.57;;
11024;SDS011;22890;51.820;8.682;2023-01-05T17:31:59;19.43;;;8.63;;
11024;SDS011;22890;51.820;8.682;2023-01-05T17:34:26;22.30;;;8.63;;
11024;SDS011;22890;51.820;8.682;2023-01-05T17:36:54;21.03;;;9.80;;
11024;SDS011;22890;51.820;8.682;2023-01-05T17:39:23;18.70;;;8.20;;